Date,TemperatureHighF,TemperatureAvgF,TemperatureLowF,DewpointHighF,DewpointAvgF,DewpointLowF,HumidityHigh,HumidityAvg,HumidityLow,PressureMaxIn,PressureMinIn,WindSpeedMaxMPH,WindSpeedAvgMPH,GustSpeedMaxMPH,PrecipitationSumIn
2013-1-1,31.9,27.1,18.8,30.0,23.4,16.0,92,86,75,30.20,30.07,6,2,9,0.00
2013-1-2,21.2,12.6,3.6,16.0,7.6,1.0,91,81,59,30.31,30.18,5,2,7,0.00
2013-1-3,30.0,22.9,13.1,26.0,16.8,7.0,86,78,63,30.32,30.22,14,5,19,0.00
2013-1-4,26.6,21.9,15.0,22.0,17.1,12.0,88,82,75,30.34,30.28,15,6,20,0.00
2013-1-5,36.0,28.9,19.1,32.0,25.0,16.0,93,86,74,30.36,30.12,11,5,18,0.02
2013-1-6,36.0,31.5,25.6,33.0,28.0,21.0,88,86,83,30.36,30.00,13,6,22,0.00
2013-1-7,34.7,27.4,15.3,27.0,23.3,13.0,94,85,74,30.47,30.24,18,4,21,0.00
2013-1-8,41.6,32.2,21.1,31.0,26.6,19.0,93,80,66,30.31,30.21,12,4,15,0.00
2013-1-9,43.7,39.8,28.6,37.0,34.7,26.0,90,82,74,30.52,30.16,15,6,19,0.00
2013-1-10,40.9,33.8,25.4,38.0,30.3,24.0,95,87,78,30.56,30.10,11,4,15,0.06
2013-1-11,58.0,51.6,41.3,54.0,48.8,38.0,98,90,80,30.08,29.80,14,6,22,0.66
2013-1-12,59.8,54.4,50.5,55.0,51.4,47.0,98,90,83,29.97,29.73,13,5,19,0.68
2013-1-13,53.4,38.8,24.9,53.0,37.6,22.0,98,95,87,30.19,29.71,12,5,21,1.10
2013-1-14,24.6,20.9,17.3,21.0,17.3,14.0,90,85,82,30.50,30.20,10,3,21,0.00
2013-1-15,30.2,24.5,17.7,24.0,20.2,15.0,92,83,69,30.46,30.16,11,4,17,0.00
2013-1-16,35.4,29.1,22.5,28.0,24.3,20.0,94,82,67,30.15,29.97,12,4,17,0.01
2013-1-17,39.1,30.9,22.5,31.0,24.6,16.0,95,78,59,30.43,30.08,12,4,20,0.00
2013-1-18,38.1,30.0,20.5,28.0,22.1,17.0,86,73,58,30.51,30.12,20,7,30,0.00
2013-1-19,50.0,43.0,37.1,37.0,32.6,27.0,81,67,59,30.12,29.83,18,10,28,0.00
2013-1-20,43.3,26.7,21.6,37.0,15.8,11.0,78,64,56,30.27,29.84,23,8,34,0.00
2013-1-21,21.7,15.1,8.6,13.0,6.6,-2.0,88,69,60,30.29,30.14,18,8,24,0.00
2013-1-22,13.6,9.2,4.6,3.0,0.1,-3.0,77,67,59,30.43,30.29,15,6,19,0.00
2013-1-23,21.0,16.0,10.3,16.0,7.5,1.0,84,70,55,30.41,30.15,13,4,21,0.00
2013-1-24,22.8,17.6,9.4,16.0,9.6,5.0,88,72,56,30.66,30.19,14,4,20,0.00
2013-1-25,27.0,22.0,18.7,22.0,17.0,11.0,90,81,70,30.49,30.06,9,4,13,0.00
2013-1-26,29.0,25.6,20.7,22.0,19.1,16.0,85,76,65,30.48,30.12,10,3,13,0.04
2013-1-27,34.7,27.1,19.3,33.0,22.9,16.0,94,84,75,30.48,30.11,10,4,14,0.01
2013-1-28,50.0,46.2,34.9,49.0,45.3,33.0,99,97,94,30.12,29.95,16,7,20,0.41
2013-1-29,62.2,56.8,49.6,58.0,54.9,49.0,100,93,87,29.98,29.41,22,10,27,0.00
2013-1-30,64.5,47.7,30.5,60.0,45.7,28.0,98,93,85,29.50,29.21,27,9,34,0.70
2013-1-31,29.7,21.7,12.2,27.0,16.4,6.0,89,80,70,30.10,29.52,22,11,36,0.00
2013-2-1,15.7,11.3,6.4,10.0,5.2,1.0,80,76,70,30.43,30.11,17,8,26,0.00
2013-2-2,26.0,21.6,15.7,23.0,18.4,10.0,92,87,78,30.32,30.02,13,5,19,0.00
2013-2-3,22.1,17.1,11.9,19.0,13.5,9.0,92,85,80,30.13,29.99,13,4,17,0.00
2013-2-4,32.6,24.8,14.8,29.0,21.8,12.0,92,88,77,30.13,29.86,7,3,9,0.05
2013-2-5,33.4,26.9,18.6,31.0,23.8,17.0,94,88,76,30.05,29.86,10,4,17,0.00
2013-2-6,37.0,32.2,28.7,29.0,26.2,24.0,88,78,68,30.30,30.06,11,3,15,0.00
2013-2-7,48.5,38.1,30.1,41.0,33.2,27.0,94,83,74,30.24,29.80,9,4,11,0.08
2013-2-8,40.9,33.1,23.9,40.0,29.2,21.0,96,85,75,30.38,29.81,20,6,23,0.04
2013-2-9,37.4,28.6,20.4,28.0,23.8,19.0,94,83,68,30.47,30.25,9,3,14,0.00
2013-2-10,50.0,41.1,30.6,48.0,35.5,26.0,95,80,68,30.24,29.70,15,6,27,0.07
2013-2-11,50.2,39.1,32.5,48.0,32.8,26.0,93,78,71,30.02,29.66,27,12,36,0.00
2013-2-12,38.0,32.5,29.3,31.0,27.0,24.0,87,80,74,30.14,29.97,15,5,22,0.00
2013-2-13,42.5,33.1,27.0,33.0,27.9,24.0,89,81,67,29.97,29.79,8,3,12,0.00
2013-2-14,35.8,34.6,33.5,34.0,31.5,30.0,93,88,79,29.85,29.83,10,6,15,0.00
2013-2-19,25.2,20.7,17.9,20.0,14.1,-99.9,88,79,75,30.13,0.00,24,-3,34,0.00
2013-2-20,22.6,12.0,13.2,16.0,-28.2,-99.9,86,49,71,30.36,30.14,17,-360,19,0.00
2013-2-21,23.8,5.5,22.9,19.0,-72.3,-99.9,81,19,79,30.40,30.13,7,-764,10,0.00
2013-2-22,35.7,30.6,24.1,35.0,27.0,-99.9,97,92,87,30.14,29.91,18,-15,25,0.09
2013-2-23,31.9,29.4,26.9,30.0,24.5,23.0,93,82,74,30.02,29.95,11,6,18,0.00
2013-2-24,37.7,29.6,23.9,26.0,23.3,21.0,91,78,62,30.19,30.00,9,3,15,0.00
2013-2-25,43.1,32.3,21.8,32.0,27.0,20.0,96,81,62,30.23,29.99,14,5,17,0.00
2013-2-26,35.2,33.5,32.0,34.0,31.1,27.0,97,90,81,29.99,29.45,19,6,27,0.89
2013-2-27,36.4,34.3,31.7,36.0,33.0,30.0,97,95,90,29.67,29.48,14,6,22,0.11
2013-2-28,37.8,34.7,32.1,34.0,32.6,31.0,97,92,86,29.99,29.65,10,5,18,0.05
2013-3-1,33.6,31.6,27.3,32.0,28.1,22.0,96,87,76,30.13,29.97,10,5,15,0.02
2013-3-2,32.2,28.6,26.2,23.0,20.9,18.0,85,73,63,30.14,30.09,12,4,15,0.00
2013-3-3,32.6,28.3,20.6,21.0,19.5,18.0,88,70,59,30.13,30.08,12,4,17,0.00
2013-3-4,37.7,28.2,17.0,30.0,22.0,15.0,94,79,57,30.19,30.05,9,3,12,0.00
2013-3-5,34.5,31.7,28.2,31.0,29.9,27.0,96,92,85,30.07,29.68,18,9,23,0.04
2013-3-6,34.5,31.3,27.0,31.0,28.9,26.0,96,91,82,30.29,29.78,13,5,20,0.22
2013-3-7,39.6,34.8,31.1,32.0,29.5,26.0,94,81,62,30.43,30.27,8,3,10,0.12
2013-3-8,32.0,26.3,20.0,26.0,22.5,18.0,92,85,77,30.49,30.43,2,0,4,0.00
2013-3-11,51.2,38.9,34.9,50.0,25.1,-99.9,96,80,81,29.81,29.56,22,-109,29,0.32
2013-3-12,38.8,20.9,32.3,32.0,-22.3,-99.9,93,49,66,30.02,29.82,16,-396,24,0.01
2013-3-13,31.8,16.6,27.2,24.0,-31.8,-99.9,86,40,59,30.34,30.01,19,-428,24,0.00
2013-3-14,41.0,23.7,22.6,30.0,-5.6,-99.9,87,56,52,30.38,30.18,10,-228,15,0.00
2013-3-15,48.6,26.2,30.9,43.0,-7.5,-99.9,95,62,72,30.17,29.80,7,-317,13,0.09
2013-3-16,43.8,38.0,33.2,41.0,35.9,29.0,97,92,83,30.09,29.64,11,5,15,0.01
2013-3-17,37.2,32.3,29.7,29.0,26.4,24.0,86,79,69,30.22,30.08,19,9,25,0.00
2013-3-18,39.3,31.3,29.6,39.0,21.9,-99.9,97,86,82,30.09,29.61,18,-70,26,0.14
2013-3-19,36.9,30.2,24.3,29.0,20.2,15.0,82,67,53,30.10,29.81,23,13,35,0.00
2013-3-20,32.4,27.0,22.9,20.0,14.2,-99.9,78,61,49,30.09,30.01,17,-3,24,0.00
2013-3-21,34.7,25.7,17.3,19.0,16.2,13.0,85,69,47,30.05,30.01,16,5,20,0.00
2013-3-22,42.0,29.7,17.6,24.0,20.0,15.0,93,70,41,30.09,30.02,12,2,14,0.00
2013-3-23,46.6,34.7,25.0,29.0,24.8,20.0,85,69,48,30.13,29.97,10,3,15,0.00
2013-3-24,37.7,32.1,29.6,30.0,26.9,25.0,95,81,69,29.99,29.54,30,13,39,0.00
2013-3-25,36.3,32.1,28.8,34.0,30.1,28.0,96,92,79,29.99,29.54,13,6,17,0.28
2013-3-26,40.3,35.4,31.6,32.0,29.8,26.0,92,80,60,30.24,29.99,14,5,18,0.00
2013-3-27,40.8,34.2,27.7,31.0,28.4,25.0,90,80,67,30.33,30.24,9,4,17,0.00
2013-3-28,45.7,35.9,25.7,33.0,28.5,23.0,90,75,58,30.38,30.31,10,3,12,0.00
2013-3-29,52.1,39.1,28.2,36.0,31.1,27.0,95,76,43,30.35,30.24,10,2,13,0.00
2013-3-30,55.1,42.3,27.8,39.0,32.9,26.0,95,72,47,30.27,29.95,9,2,14,0.00
2013-3-31,58.9,48.3,39.7,46.0,41.0,35.0,95,77,52,29.94,29.72,20,5,34,0.00
2013-4-1,42.8,37.5,30.1,35.0,24.4,19.0,78,60,40,30.17,29.81,14,5,21,0.00
2013-4-2,44.3,33.1,23.2,24.0,19.1,14.0,88,60,31,30.32,30.17,17,3,18,0.00
2013-4-3,48.8,34.8,22.5,24.0,19.8,16.0,88,58,28,30.47,30.31,11,2,15,0.00
2013-4-4,56.6,41.3,29.9,34.0,24.6,19.0,81,55,29,30.37,30.00,6,2,12,0.00
2013-4-5,55.4,44.0,32.0,36.0,29.1,21.0,92,60,28,30.19,29.98,10,3,15,0.00
2013-4-6,65.3,50.3,36.6,42.0,32.9,26.0,72,53,37,30.18,29.79,21,8,27,0.00
2013-4-7,67.8,59.8,51.4,48.0,44.4,41.0,79,58,40,29.96,29.73,16,7,26,0.00
2013-4-8,73.1,59.1,45.7,60.0,51.3,40.0,94,76,60,29.97,29.78,23,6,32,0.40
2013-4-9,78.9,65.6,52.5,64.0,56.7,49.0,91,74,52,30.01,29.85,16,6,25,0.00
2013-4-10,76.6,63.9,48.8,69.0,59.8,48.0,97,87,74,29.88,29.77,16,6,25,2.54
2013-4-11,52.6,48.4,43.4,52.0,47.8,43.0,98,97,95,29.80,29.57,15,8,29,0.79
2013-4-12,45.0,41.7,38.4,45.0,37.4,32.0,98,84,73,29.90,29.58,18,8,26,0.01
2013-4-13,44.0,40.6,37.9,38.0,35.1,32.0,91,81,66,30.04,29.91,15,6,25,0.01
2013-4-14,66.9,51.4,39.7,52.0,43.5,36.0,87,75,57,30.06,29.85,11,4,17,0.00
2013-4-15,60.2,56.6,53.2,53.0,48.7,47.0,82,75,65,29.93,29.84,13,5,20,0.00
2013-4-18,74.2,59.9,59.5,66.0,52.0,-99.9,99,87,76,29.72,29.56,23,-51,39,2.47
2013-4-19,59.4,35.5,36.1,59.0,16.4,-99.9,99,73,72,29.92,29.49,20,-151,31,0.02
2013-4-20,46.0,36.3,33.9,34.0,19.3,-99.9,90,63,48,30.46,29.91,14,-69,25,0.00
2013-4-21,51.8,39.4,29.7,35.0,24.6,-99.9,79,62,45,30.59,30.42,13,-27,17,0.00
2013-4-22,65.9,50.1,33.6,44.0,38.0,31.0,92,67,38,30.42,30.13,8,3,13,0.00
2013-4-23,67.2,56.0,44.8,57.0,49.3,40.0,97,80,56,30.14,29.78,16,4,25,0.62
2013-4-24,56.8,39.1,37.7,56.0,26.0,-99.9,97,78,65,30.21,29.78,11,-91,22,0.51
2013-4-25,51.9,44.2,37.1,41.0,34.7,28.0,88,71,42,30.39,30.19,22,6,27,0.00
2013-4-26,61.0,47.3,31.7,44.0,37.0,30.0,95,70,48,30.46,30.35,10,2,14,0.00
2013-4-27,67.4,54.7,38.9,51.0,42.8,36.0,90,67,43,30.36,30.05,12,4,18,0.00
2013-4-28,59.5,56.6,52.9,58.0,54.9,51.0,98,94,81,30.05,29.82,7,3,12,0.56
2013-4-29,67.2,60.0,55.5,58.0,55.8,53.0,98,86,69,29.97,29.86,9,3,14,0.00
2013-4-30,77.5,65.4,53.2,65.0,57.2,50.0,91,76,62,30.02,29.92,14,5,17,0.00
2013-5-1,81.6,69.8,53.2,63.0,57.9,51.0,93,68,48,30.15,30.02,11,3,15,0.00
2013-5-2,75.5,67.8,58.5,61.0,57.3,55.0,89,70,56,30.18,30.06,11,3,16,0.00
2013-5-3,75.7,68.2,59.1,63.0,57.0,45.0,87,69,46,30.06,29.92,12,5,21,0.00
2013-5-4,72.6,64.6,57.7,52.0,47.7,43.0,71,55,37,30.00,29.94,14,6,19,0.00
2013-5-5,69.3,60.8,53.1,55.0,50.3,46.0,83,69,54,30.00,29.94,15,5,21,0.00
2013-5-6,71.4,62.8,55.0,57.0,51.9,45.0,84,68,56,29.98,29.92,13,6,18,0.00
2013-5-7,76.8,66.2,57.5,59.0,56.6,54.0,91,73,53,30.00,29.93,11,4,16,0.00
2013-5-8,76.3,62.3,52.8,59.0,54.9,51.0,96,79,47,30.01,29.95,6,2,11,0.04
2013-5-9,78.9,64.1,52.3,62.0,57.0,52.0,99,80,42,29.99,29.89,10,2,25,0.10
2013-5-10,68.1,62.0,49.7,62.0,58.3,47.0,96,87,74,29.89,29.78,12,6,17,0.13
2013-5-11,59.1,48.7,44.4,54.0,45.2,37.0,96,88,73,30.01,29.82,15,5,23,0.05
2013-5-12,53.1,45.2,37.6,37.0,34.0,31.0,90,67,45,30.14,30.01,12,4,20,0.00
2013-5-13,61.9,48.2,34.1,39.0,32.5,28.0,93,60,29,30.20,30.11,13,2,17,0.00
2013-5-14,84.2,66.7,45.8,63.0,50.0,34.0,71,56,45,30.12,29.75,21,7,26,0.00
2013-5-15,84.6,76.6,70.5,65.0,59.9,56.0,71,57,43,29.78,29.71,19,7,28,0.00
2013-5-16,79.3,69.0,57.2,63.0,57.1,52.0,98,70,39,29.95,29.78,6,1,11,0.08
2013-5-17,81.0,64.7,55.1,65.0,58.6,51.0,96,82,50,30.06,29.95,9,3,16,0.28
2013-5-18,78.3,66.1,57.5,68.0,59.1,49.0,96,78,64,30.08,29.97,9,3,13,0.01
2013-5-19,83.6,72.4,58.6,71.0,63.5,53.0,83,74,59,29.98,29.84,9,2,13,0.00
2013-5-20,84.6,76.4,68.8,72.0,68.9,66.0,96,78,60,29.90,29.79,16,5,22,0.00
2013-5-21,84.3,75.0,65.2,69.0,65.1,62.0,92,73,50,29.83,29.71,15,7,23,0.02
2013-5-22,75.5,70.1,63.1,66.0,63.1,58.0,93,79,63,29.75,29.66,14,6,30,0.09
2013-5-23,63.9,59.3,51.0,61.0,55.3,47.0,94,86,76,30.15,29.74,13,6,19,0.01
2013-5-24,65.7,54.1,44.5,48.0,42.1,37.0,92,67,36,30.36,30.14,11,4,16,0.00
2013-5-25,66.3,56.1,43.7,48.0,43.3,40.0,91,64,42,30.39,30.24,7,2,9,0.00
2013-5-26,69.5,59.9,44.5,53.0,45.1,41.0,89,60,42,30.31,30.17,10,3,16,0.00
2013-5-27,67.5,60.3,50.8,65.0,55.7,42.0,98,85,51,30.20,29.89,15,4,21,1.23
2013-5-28,79.8,71.6,62.2,71.0,66.8,62.0,99,85,71,29.93,29.85,17,5,25,0.09
2013-5-29,84.6,76.2,68.9,70.0,65.8,62.0,84,71,55,29.99,29.89,15,5,22,0.00
2013-5-30,85.7,76.1,67.2,71.0,67.5,63.0,90,75,57,30.04,29.91,13,5,25,0.10
2013-5-31,74.9,72.5,68.1,71.0,68.2,65.0,96,86,80,29.97,29.85,12,5,19,0.52
2013-6-1,74.3,69.9,64.3,70.0,66.1,64.0,98,88,75,29.86,29.72,16,5,41,0.47
2013-6-2,69.6,63.5,55.0,65.0,58.9,48.0,93,85,76,30.00,29.73,10,5,18,0.01
2013-6-3,69.9,58.0,46.2,50.0,46.4,41.0,92,68,42,30.09,29.99,8,3,18,0.00
2013-6-4,75.6,60.8,47.7,54.0,50.2,46.0,94,71,43,30.17,30.07,10,3,18,0.00
2013-6-5,80.7,67.6,54.0,58.0,52.2,47.0,77,59,43,30.11,29.89,13,5,20,0.00
2013-6-6,76.9,65.3,58.5,60.0,54.4,47.0,83,69,53,29.91,29.80,11,5,16,0.00
2013-6-7,74.5,64.7,57.4,59.0,56.4,54.0,94,76,53,29.90,29.82,10,4,17,0.00
2013-6-8,76.7,64.9,50.9,62.0,55.7,50.0,97,74,51,30.01,29.89,6,1,10,0.00
2013-6-9,81.5,71.1,62.8,68.0,63.0,60.0,92,77,50,30.03,29.85,11,3,15,0.02
2013-6-10,77.4,70.2,64.7,66.0,65.1,64.0,98,84,64,29.84,29.73,11,4,22,0.50
2013-6-11,83.7,71.5,62.7,69.0,65.6,62.0,97,83,57,29.94,29.81,10,3,14,0.01
2013-6-12,89.0,77.0,66.7,77.0,71.6,65.0,99,84,63,29.89,29.61,14,3,32,0.67
2013-6-13,78.2,69.8,62.9,67.0,61.4,55.0,99,77,51,29.95,29.56,12,5,19,0.41
2013-6-14,79.2,67.9,57.4,64.0,58.9,55.0,94,75,50,30.07,29.93,7,2,11,0.00
2013-6-15,76.9,67.8,58.0,69.0,63.0,57.0,98,85,66,30.09,29.93,8,2,12,0.00
2013-6-16,80.5,72.5,64.9,71.0,67.4,63.0,96,84,68,29.93,29.88,16,4,21,0.07
2013-6-17,85.6,75.6,68.1,73.0,67.9,64.0,97,79,48,29.93,29.86,8,2,12,0.00
2013-6-18,81.0,72.7,64.2,68.0,64.3,59.0,95,76,55,30.00,29.83,10,4,15,0.00
2013-6-19,80.7,68.2,55.8,62.0,56.9,51.0,89,69,44,30.12,30.01,9,3,12,0.00
2013-6-20,85.6,72.1,57.4,70.0,61.5,54.0,89,71,51,30.17,30.10,7,2,10,0.00
2013-6-21,86.1,75.7,62.6,69.0,64.2,60.0,93,70,44,30.17,29.98,11,3,14,0.00
2013-6-22,88.0,77.5,71.1,76.0,69.8,67.0,89,78,58,30.09,29.96,10,3,21,0.00
2013-6-23,87.7,74.9,67.8,73.0,68.9,66.0,97,83,55,30.08,29.98,14,3,25,0.43
2013-6-24,84.5,75.6,67.5,73.0,69.7,66.0,98,83,64,30.09,29.93,17,4,28,0.64
2013-6-25,88.9,78.6,67.7,76.0,71.6,66.0,98,80,60,29.98,29.81,12,5,22,0.00
2013-6-26,82.0,72.9,68.4,77.0,70.0,67.0,97,90,78,29.89,29.70,7,2,16,0.40
2013-6-27,84.6,76.1,69.8,74.0,71.1,68.0,99,85,67,29.75,29.65,13,4,16,0.06
2013-6-28,80.6,72.1,64.5,69.0,65.8,60.0,96,82,54,29.66,29.55,10,3,30,0.30
2013-6-29,76.3,67.3,62.9,69.0,64.4,61.0,98,91,70,29.67,29.55,9,2,14,0.43
2013-6-30,72.4,66.6,62.1,67.0,63.7,61.0,99,91,78,29.89,29.67,13,4,19,1.11
2013-7-1,68.7,65.5,62.3,64.0,61.4,58.0,94,87,78,29.98,29.87,14,5,22,0.15
2013-7-2,78.8,66.8,60.7,70.0,63.7,59.0,98,90,71,30.01,29.95,9,4,15,0.20
2013-7-3,79.5,72.2,62.9,69.0,66.9,62.0,99,84,68,30.07,29.99,10,3,15,0.01
2013-7-4,78.6,70.7,63.1,70.0,66.7,63.0,99,88,69,30.13,30.05,5,0,6,0.00
2013-7-5,81.4,74.7,66.2,71.0,69.0,66.0,99,83,66,30.11,30.03,6,2,9,0.00
2013-7-6,77.0,71.1,68.5,71.0,69.2,68.0,98,94,80,30.09,29.99,7,1,9,0.02
2013-7-7,80.9,72.5,65.8,73.0,68.9,65.0,98,89,73,30.07,29.98,8,3,12,0.00
2013-7-8,82.8,76.4,69.8,77.0,72.0,69.0,96,86,75,30.06,29.96,11,3,15,0.22
2013-7-9,86.5,80.6,72.6,78.0,75.2,71.0,96,84,73,30.00,29.89,9,3,16,0.00
2013-7-10,85.3,77.6,67.1,79.0,72.6,61.0,95,85,72,29.97,29.79,11,4,34,0.90
2013-7-11,80.2,70.0,60.2,64.0,60.1,57.0,90,72,50,30.05,29.94,9,3,16,0.00
2013-7-12,81.4,69.1,57.6,66.0,61.2,56.0,97,77,53,30.11,30.03,9,2,15,0.00
2013-7-13,83.8,72.6,60.1,72.0,65.9,58.0,95,80,63,30.15,30.09,10,3,18,0.00
2013-7-14,89.2,77.9,65.7,77.0,72.0,65.0,98,83,65,30.19,30.13,9,3,12,0.00
2013-7-15,88.8,80.4,73.8,77.0,74.4,72.0,95,82,64,30.27,30.19,7,2,12,0.00
2013-7-16,91.6,80.9,70.5,79.0,74.0,70.0,99,81,58,30.31,30.24,5,1,8,0.00
2013-7-17,90.8,81.4,71.5,79.0,74.4,71.0,99,81,58,30.31,30.16,6,2,11,0.00
2013-7-18,91.8,81.5,71.6,79.0,75.2,71.0,99,83,60,30.18,29.98,11,2,12,0.00
2013-7-19,90.1,82.2,73.8,78.0,75.2,72.0,94,80,65,30.00,29.80,12,4,20,0.00
2013-7-20,80.7,77.5,71.6,75.0,73.0,70.0,96,86,80,29.89,29.76,10,4,17,0.28
2013-7-21,87.4,76.8,67.6,75.0,71.3,67.0,99,84,60,29.95,29.85,7,2,9,0.01
2013-7-22,83.8,73.8,67.1,73.0,69.7,66.0,98,88,67,29.88,29.75,8,3,14,0.95
2013-7-23,83.4,74.1,63.3,72.0,67.9,57.0,98,82,62,29.87,29.68,13,4,19,0.01
2013-7-24,75.3,64.4,54.6,60.0,55.9,51.0,93,75,55,30.02,29.87,16,4,18,0.00
2013-7-25,77.3,64.9,53.4,64.0,57.6,52.0,97,79,51,30.11,30.02,5,1,9,0.01
2013-7-26,79.0,67.4,55.6,66.0,60.8,55.0,98,81,57,30.09,29.92,9,2,14,0.01
2013-7-27,75.5,69.1,59.8,67.0,61.9,53.0,95,79,56,29.92,29.79,17,5,21,0.00
2013-7-28,70.1,61.1,51.7,56.0,53.1,49.0,94,76,58,30.03,29.89,13,4,20,0.00
2013-7-29,74.5,63.7,51.6,63.0,56.3,51.0,96,79,58,30.18,30.03,11,2,16,0.00
2013-7-30,76.7,66.3,54.0,67.0,61.0,53.0,98,84,59,30.22,30.10,5,0,8,0.01
2013-7-31,72.1,68.4,65.9,70.0,66.6,63.0,97,94,88,30.09,29.92,8,1,9,0.08
2013-8-1,79.8,70.2,61.6,68.0,63.9,60.0,99,82,53,29.98,29.92,9,3,16,0.00
2013-8-2,81.2,68.5,56.9,70.0,63.1,56.0,98,84,66,29.98,29.86,17,3,22,0.04
2013-8-3,80.8,71.0,61.6,69.0,64.0,56.0,99,80,52,30.05,29.91,9,3,14,0.54
2013-8-4,77.5,66.3,55.3,61.0,57.5,53.0,93,75,47,30.16,30.05,9,2,12,0.00
2013-8-5,75.4,66.1,56.7,67.0,61.5,56.0,97,86,64,30.11,29.95,8,1,9,0.00
2013-8-6,76.7,67.2,60.3,71.0,63.9,58.0,94,89,81,29.95,29.90,7,3,9,0.00
2013-8-8,73.9,69.4,71.1,71.0,62.6,-99.9,93,88,90,29.94,29.91,7,-41,9,0.00
2013-8-9,81.1,73.4,68.1,70.0,67.4,62.0,97,83,52,30.01,29.91,9,2,9,0.00
2013-8-10,82.9,73.7,64.9,73.0,67.6,64.0,99,82,57,30.08,30.02,7,2,11,0.01
2013-8-11,81.6,71.3,61.4,69.0,64.8,60.0,98,81,56,30.10,30.03,5,1,9,0.00
2013-8-12,83.7,72.5,62.2,72.0,67.4,62.0,99,85,63,30.07,29.84,6,2,10,0.01
2013-8-13,71.7,66.9,57.6,69.0,58.7,52.0,96,77,51,30.08,29.85,13,4,17,0.00
2013-8-14,70.3,59.4,49.8,56.0,51.0,47.0,94,75,51,30.20,30.09,9,2,13,0.00
2013-8-15,74.5,60.5,47.8,60.0,53.1,47.0,98,79,49,30.19,30.11,5,1,8,0.00
2013-8-16,76.1,65.2,55.5,63.0,57.9,54.0,96,79,54,30.18,30.12,9,2,11,0.00
2013-8-17,79.5,66.8,54.0,62.0,58.2,53.0,95,76,53,30.22,30.14,11,3,15,0.00
2013-8-18,82.4,69.1,56.6,68.0,61.1,55.0,96,78,51,30.19,30.09,7,1,11,0.00
2013-8-19,83.4,69.8,56.9,70.0,62.6,56.0,98,80,54,30.13,30.05,5,1,10,0.00
2013-8-20,85.0,72.1,59.9,72.0,65.5,59.0,99,82,55,30.15,30.06,5,1,9,0.00
2013-8-21,85.6,73.2,64.8,74.0,68.3,63.0,96,85,60,30.14,30.00,5,1,7,0.00
2013-8-22,75.6,70.4,66.9,72.0,68.6,66.0,97,94,85,30.09,29.99,8,1,18,0.07
2013-8-23,84.3,71.1,62.3,71.0,65.4,60.0,99,84,50,30.15,30.05,12,2,12,0.01
2013-8-24,84.1,69.7,54.0,66.0,59.6,53.0,98,73,47,30.28,30.15,9,3,17,0.00
2013-8-25,86.0,71.7,58.2,71.0,63.4,57.0,98,77,49,30.29,30.18,8,2,12,0.00
2013-8-26,86.9,73.8,61.3,76.0,68.4,60.0,96,84,61,30.21,30.04,8,2,15,0.00
2013-8-27,89.7,78.7,71.1,78.0,73.0,69.0,95,83,65,30.04,29.89,9,3,14,0.00
2013-8-28,88.1,80.4,74.9,77.0,73.3,70.0,87,79,69,29.96,29.85,10,4,18,0.00
2013-8-29,87.0,76.7,68.6,74.0,70.8,67.0,99,83,62,30.04,29.96,9,2,13,0.00
2013-8-30,90.0,76.3,63.7,76.0,69.9,63.0,99,82,57,29.98,29.74,11,2,14,0.00
2013-8-31,83.4,73.4,68.9,75.0,70.3,68.0,97,90,72,29.87,29.73,13,2,22,0.81
2013-9-1,79.8,72.2,67.2,74.0,69.9,67.0,99,92,81,29.79,29.74,7,2,10,0.00
2013-9-2,80.8,72.6,63.8,71.0,65.5,59.0,99,80,53,29.92,29.74,11,3,16,0.01
2013-9-3,74.2,62.7,51.4,60.0,55.9,50.0,96,80,58,30.05,29.93,8,2,16,0.00
2013-9-4,80.3,65.0,51.5,67.0,58.2,51.0,99,81,52,30.14,30.05,7,2,13,0.00
2013-9-5,81.5,67.5,56.3,63.0,57.4,47.0,99,73,43,30.21,30.10,9,2,11,0.01
2013-9-6,80.1,64.1,49.8,64.0,54.0,47.0,93,72,45,30.25,30.08,7,2,11,0.00
2013-9-7,86.1,71.3,57.7,71.0,63.2,55.0,92,77,49,30.08,29.91,13,2,18,0.00
2013-9-8,82.1,72.0,63.3,72.0,66.9,62.0,99,84,68,29.99,29.92,14,5,18,0.00
2013-9-9,69.7,65.0,62.3,68.0,62.5,60.0,95,91,88,30.00,29.96,6,2,8,0.00
2013-9-23,69.1,59.6,43.8,52.0,47.0,-99.9,96,67,52,30.14,30.06,13,-11,17,0.00
2013-9-24,71.1,55.7,44.0,55.0,45.3,-99.9,96,74,47,30.11,29.95,10,-19,14,0.00
2013-9-25,75.5,44.6,48.7,56.0,3.6,-99.9,96,44,43,29.96,29.89,13,-320,14,0.00
2013-9-26,79.5,61.9,49.1,59.0,52.6,48.0,97,75,39,30.10,29.94,10,2,13,0.00
2013-9-27,77.6,58.8,46.2,57.0,50.0,44.0,95,75,40,30.19,30.10,7,3,13,0.00
2013-9-30,74.4,62.3,59.3,62.0,48.3,-99.9,97,73,58,29.99,0.00,10,-69,13,0.00
2013-10-1,73.2,64.5,58.4,65.0,61.7,58.0,99,91,73,30.04,29.97,10,3,15,0.01
2013-10-2,79.3,67.9,61.8,70.0,65.2,61.0,99,91,68,30.09,30.00,6,1,9,0.01
2013-10-3,79.4,70.5,62.7,70.0,66.4,62.0,99,87,68,30.03,29.92,9,2,17,0.07
2013-10-4,82.3,73.2,67.8,73.0,68.3,65.0,95,85,68,30.02,29.95,12,3,14,0.05
2013-10-5,78.4,70.3,67.6,72.0,67.0,-99.9,99,91,77,30.00,29.83,10,-7,16,1.23
2013-10-6,68.8,61.3,48.9,67.0,59.3,44.0,98,93,73,29.86,29.70,10,4,21,0.82
2013-10-7,60.8,49.6,44.4,49.0,42.3,-99.9,95,81,61,30.15,29.79,17,-18,21,0.00
2013-10-8,71.3,57.2,-12.9,54.0,44.5,-99.9,96,69,51,30.27,30.15,7,-28,10,0.00
2013-10-9,73.3,56.5,42.3,55.0,47.6,41.0,97,75,44,30.27,30.16,8,1,13,0.00
2013-10-10,74.6,57.4,42.7,54.0,48.1,41.0,97,75,39,30.20,30.09,8,0,10,0.00
2013-10-11,77.7,59.8,44.9,60.0,50.3,43.0,97,74,43,30.13,30.02,6,1,8,0.00
2013-10-12,78.8,61.1,48.0,60.0,50.9,-99.9,98,76,44,30.10,30.01,7,-20,11,0.00
2013-10-13,69.9,62.1,50.7,62.0,49.0,43.0,94,65,39,30.35,30.10,8,2,13,0.00
2013-10-14,68.5,53.7,40.3,53.0,45.7,39.0,97,76,49,30.38,30.22,10,2,15,0.00
2013-10-15,66.7,57.3,46.9,63.0,54.9,45.0,97,91,86,30.22,29.89,9,3,14,0.04
2013-10-16,63.8,55.4,46.8,62.0,49.2,43.0,95,80,63,29.97,29.86,12,4,20,0.00
2013-10-17,51.9,46.5,41.3,49.0,44.6,40.0,97,93,85,29.95,29.86,14,2,18,0.13
2013-10-18,64.1,50.3,42.0,51.0,44.2,40.0,95,81,51,29.99,29.90,18,4,21,0.01
2013-10-19,52.8,44.9,40.6,43.0,40.1,37.0,96,84,60,29.97,29.85,13,3,19,0.27
2013-10-20,62.8,51.4,41.5,46.0,41.7,37.0,86,71,53,29.97,29.89,19,7,21,0.00
2013-10-21,56.7,49.9,39.2,48.0,43.5,32.0,91,79,68,29.97,29.88,13,6,18,0.01
2013-10-22,48.5,38.6,31.0,36.0,31.2,27.0,94,77,49,30.04,29.92,10,3,14,0.13
2013-10-23,44.1,38.8,34.0,39.0,34.7,30.0,96,86,62,30.04,29.85,11,3,18,0.11
2013-10-24,43.9,38.6,33.1,33.0,31.3,27.0,92,76,60,30.28,30.03,9,3,15,0.00
2013-10-25,47.9,37.6,28.8,34.0,29.0,26.0,90,73,50,30.44,30.24,11,4,18,0.01
2013-10-26,54.3,43.7,36.5,42.0,33.7,28.0,90,68,54,30.23,29.90,18,7,28,0.00
2013-10-27,54.5,41.0,30.1,39.0,33.5,29.0,96,78,46,30.12,30.05,11,2,15,0.00
2013-10-28,60.0,43.7,29.6,41.0,34.3,28.0,97,74,41,30.35,30.10,7,1,9,0.00
2013-10-29,55.2,45.5,34.8,45.0,40.2,33.0,95,83,67,30.40,30.21,9,3,10,0.00
2013-10-30,63.2,54.7,44.3,62.0,51.7,41.0,98,89,78,30.21,29.94,12,2,12,0.04
2013-10-31,64.1,61.3,56.0,63.0,59.9,55.0,97,95,89,29.94,29.24,17,9,26,1.73
2013-11-1,55.3,49.6,45.9,54.0,45.7,43.0,95,86,77,29.74,29.32,20,7,27,0.01
2013-11-2,49.9,46.0,43.3,44.0,42.9,41.0,94,89,77,30.11,29.73,11,4,22,0.03
2013-11-3,50.5,43.8,39.9,43.0,39.7,37.0,94,86,68,30.38,30.11,11,4,12,0.00
2013-11-4,55.0,46.4,37.9,43.0,39.3,35.0,89,77,59,30.40,30.28,9,4,18,0.00
2013-11-5,57.6,51.9,43.3,50.0,45.5,40.0,90,79,67,30.37,30.16,13,4,13,0.01
2013-11-6,59.4,53.7,43.0,54.0,48.3,41.0,95,83,63,30.14,29.88,18,8,25,0.13
2013-11-7,47.4,41.6,34.4,41.0,34.4,31.0,91,76,53,30.26,30.08,12,5,20,0.00
2013-11-8,48.0,38.9,31.0,35.0,32.4,29.0,93,79,57,30.37,30.18,9,3,12,0.00
2013-11-9,59.8,50.5,43.6,44.0,38.2,31.0,77,63,55,30.19,29.95,17,8,31,0.00
2013-11-10,47.6,41.0,31.0,39.0,32.4,29.0,93,73,58,30.34,30.05,15,5,25,0.00
2013-11-11,51.3,41.1,29.8,40.0,34.9,28.0,94,79,62,30.38,30.08,18,6,21,0.04
2013-11-12,35.3,29.4,24.2,28.0,23.6,20.0,89,79,63,30.65,30.38,8,4,14,0.04
2013-11-13,38.3,29.6,21.5,24.0,21.2,19.0,89,72,53,30.64,30.35,13,5,17,0.00
2013-11-14,52.5,40.5,30.3,28.0,24.4,22.0,75,55,33,30.34,30.09,16,8,23,0.00
2013-11-15,51.0,44.9,41.4,38.0,30.1,25.0,81,57,48,30.11,30.04,16,6,17,0.00
2013-11-16,59.9,50.7,40.5,57.0,47.6,38.0,94,89,82,30.08,29.77,17,6,23,0.00
2013-11-17,65.0,58.9,47.8,61.0,55.0,42.0,95,87,73,29.80,29.32,37,12,57,0.59
2013-11-18,47.4,42.2,32.0,41.0,35.2,29.0,88,77,62,30.21,29.72,19,8,25,0.00
2013-11-19,43.3,35.3,30.8,33.0,29.1,27.0,89,79,62,30.39,30.21,8,2,14,0.00
2013-11-20,46.2,37.1,27.5,37.0,31.0,25.0,91,79,66,30.39,30.21,10,4,16,0.00
2013-11-21,49.3,45.9,42.3,49.0,42.9,36.0,98,89,70,30.29,30.18,12,3,14,0.42
2013-11-22,49.9,44.0,33.6,49.0,41.6,31.0,98,91,77,30.43,30.17,17,4,22,0.07
2013-11-26,35.9,32.4,29.7,30.0,23.5,-99.9,87,77,73,30.13,29.99,15,-30,18,0.00
2013-11-27,29.5,26.1,22.7,24.0,19.8,-99.9,89,79,71,30.30,30.01,13,-5,18,0.00
2013-11-28,34.5,26.4,22.6,23.0,13.7,-99.9,83,67,53,30.48,30.27,11,-38,22,0.00
2013-11-29,37.7,27.2,16.1,27.0,20.7,14.0,94,78,58,30.68,30.49,7,2,9,0.00
2013-11-30,49.2,36.7,27.9,33.0,28.0,22.0,83,72,53,30.54,30.16,17,4,21,0.00
2013-12-1,47.5,40.7,33.6,38.0,32.2,28.0,81,72,64,30.15,30.01,9,3,12,0.00
2013-12-2,41.0,37.2,33.5,36.0,32.1,-99.9,94,86,80,29.94,0.00,11,-11,13,0.01
2013-12-3,49.8,42.5,35.5,47.0,40.8,34.0,96,93,88,29.87,29.79,10,4,15,0.01
2013-12-4,61.5,51.7,40.2,58.0,50.3,39.0,98,95,87,29.85,29.65,11,4,19,0.01
2013-12-5,60.2,38.6,26.2,57.0,34.3,23.0,94,84,75,30.21,29.68,18,7,24,0.00
2013-12-6,30.2,28.2,24.9,24.0,22.7,20.0,82,79,75,30.46,30.20,10,4,12,0.00
2013-12-7,26.9,21.9,17.7,21.0,14.5,-99.9,86,76,63,30.66,30.47,9,-8,12,0.00
2013-12-8,20.2,19.6,18.8,15.0,14.7,14.0,83,81,80,30.60,30.54,11,7,13,0.00
2013-12-9,26.7,23.1,19.5,24.0,14.8,-99.9,88,78,73,30.25,30.09,14,-24,25,0.00
2013-12-10,27.6,16.8,9.4,16.0,-5.8,-99.9,84,60,58,30.35,30.12,23,-151,34,0.00
2013-12-11,24.2,19.1,10.8,21.0,14.1,6.0,90,81,74,30.56,30.36,11,4,15,0.00
2013-12-12,24.6,13.5,2.8,10.0,4.1,-2.0,81,68,50,30.59,30.34,14,6,21,0.00
2013-12-13,35.4,26.1,17.1,29.0,18.0,8.0,94,72,62,30.34,30.18,9,3,13,0.00
2013-12-14,32.2,29.2,23.1,31.0,27.7,20.0,96,94,89,30.20,29.80,10,5,14,0.00
2013-12-15,26.8,19.7,15.3,25.0,16.1,11.0,92,85,79,30.16,29.94,20,7,27,0.00
2013-12-16,22.9,18.6,14.5,22.0,15.5,11.0,94,87,79,30.20,30.05,11,2,12,0.00
2013-12-17,28.8,23.7,19.8,26.0,21.7,18.0,94,92,85,30.14,30.02,12,6,16,0.00
2013-12-18,36.0,25.6,16.2,24.0,18.8,13.0,87,76,61,30.28,29.99,16,6,25,0.10
2013-12-19,46.1,41.1,35.8,41.0,34.3,24.0,85,77,62,30.02,29.89,16,5,21,0.09
2013-12-20,56.5,50.1,45.3,56.0,48.7,42.0,98,95,83,29.89,29.74,12,6,17,0.19
2013-12-21,54.2,39.4,35.8,52.0,38.3,35.0,97,96,90,29.84,29.53,15,5,22,1.84
2013-12-22,42.7,37.3,32.5,42.0,35.8,31.0,98,94,90,30.08,29.50,16,7,26,0.04
2013-12-23,32.5,26.4,15.7,31.0,22.3,10.0,92,84,73,30.44,30.08,16,8,21,0.00
2013-12-24,18.9,12.6,6.2,15.0,8.2,2.0,91,82,76,30.61,30.44,14,5,20,0.00
2013-12-25,28.3,24.3,18.6,26.0,19.5,15.0,89,81,76,30.52,30.18,13,6,19,0.00
2013-12-26,34.3,29.1,21.7,29.0,23.4,17.0,94,79,68,30.37,30.15,17,7,27,0.00
2013-12-27,44.4,37.1,30.2,35.0,30.7,26.0,86,77,69,30.38,30.21,14,6,19,0.00
2013-12-28,50.8,41.8,36.2,39.0,34.6,32.0,85,76,63,30.21,29.96,12,6,20,0.00
2013-12-29,43.5,36.9,26.8,36.0,31.0,24.0,92,79,70,30.09,29.79,14,6,22,0.00
2013-12-30,26.5,21.5,18.3,24.0,15.9,13.0,90,79,69,30.31,30.09,10,5,16,0.00
2013-12-31,23.1,18.6,13.6,18.0,14.3,9.0,89,83,75,30.42,30.20,17,6,22,0.00
2014-1-1,25.6,21.8,17.7,22.0,18.8,15.0,90,88,86,30.35,30.14,15,8,19,0.00
2014-1-2,18.1,15.4,7.0,16.0,12.0,2.0,91,86,75,30.38,30.02,19,7,24,0.00